Time;durP1;ratioP1;P1;durP2;ratioP2;P2;SDS_P1;SDS_P2;PMS_P1;PMS_P2;Temp;Humidity;BMP_temperature;BMP_pressure;BME280_temperature;BME280_humidity;BME280_pressure;Samples;Min_cycle;Max_cycle;Signal;HPM_P1;HPM_P2
2022/05/17 00:02:13;;;;;;;36.97;33.37;;;;;;;;;;5015762;28;20474;-84
2022/05/17 00:04:40;;;;;;;34.03;30.87;;;;;;;;;;4997988;28;20459;-83
2022/05/17 00:07:08;;;;;;;32.67;29.70;;;;;;;;;;4998673;28;20453;-84
2022/05/17 00:09:35;;;;;;;32.90;29.83;;;;;;;;;;5015423;28;20441;-84
2022/05/17 00:12:03;;;;;;;31.37;28.47;;;;;;;;;;5015934;28;20445;-84
2022/05/17 00:14:31;;;;;;;33.40;30.07;;;;;;;;;;5015495;28;20540;-85
2022/05/17 00:16:58;;;;;;;33.17;29.93;;;;;;;;;;5015539;28;20420;-84
2022/05/17 00:19:28;;;;;;;32.80;29.50;;;;;;;;;;5015965;28;20507;-85
2022/05/17 00:21:56;;;;;;;33.93;30.57;;;;;;;;;;5015333;28;20488;-84
2022/05/17 00:24:24;;;;;;;34.40;31.00;;;;;;;;;;4998474;28;20439;-84
2022/05/17 00:26:52;;;;;;;32.57;29.53;;;;;;;;;;4997936;28;21012;-83
2022/05/17 00:29:19;;;;;;;32.40;29.10;;;;;;;;;;5015417;28;20449;-85
2022/05/17 00:31:47;;;;;;;32.43;29.40;;;;;;;;;;5015108;28;20431;-84
2022/05/17 00:34:15;;;;;;;32.93;29.63;;;;;;;;;;5015033;28;20426;-84
2022/05/17 00:36:44;;;;;;;32.23;29.27;;;;;;;;;;5015544;28;20414;-84
2022/05/17 00:39:11;;;;;;;32.33;29.20;;;;;;;;;;5015060;28;20972;-84
2022/05/17 00:41:38;;;;;;;31.50;28.27;;;;;;;;;;5015091;28;20438;-85
2022/05/17 00:47:03;;;;;;;32.73;29.63;;;;;;;;;;4935567;29;20470;-83
2022/05/17 00:49:32;;;;;;;30.60;27.60;;;;;;;;;;4935405;28;20875;-84
2022/05/17 00:52:02;;;;;;;31.00;27.93;;;;;;;;;;4935396;29;20419;-85
2022/05/17 00:54:31;;;;;;;31.83;28.70;;;;;;;;;;4935558;29;20415;-84
2022/05/17 00:57:02;;;;;;;30.47;27.63;;;;;;;;;;4935373;29;20431;-85
2022/05/17 00:59:30;;;;;;;31.03;28.07;;;;;;;;;;4935117;29;20466;-84
2022/05/17 01:01:57;;;;;;;32.37;29.40;;;;;;;;;;4935191;29;20941;-85
2022/05/17 01:04:26;;;;;;;34.33;31.03;;;;;;;;;;4935021;29;20496;-85
2022/05/17 01:06:57;;;;;;;33.97;30.57;;;;;;;;;;4919423;29;20818;-84
2022/05/17 01:09:26;;;;;;;32.13;29.23;;;;;;;;;;4935114;29;20547;-84
2022/05/17 01:11:54;;;;;;;33.40;30.30;;;;;;;;;;4935022;29;20479;-84
2022/05/17 01:17:06;;;;;;;30.27;27.47;;;;;;;;;;4935225;29;20419;-84
2022/05/17 01:19:34;;;;;;;32.33;29.13;;;;;;;;;;4934840;29;20447;-85
2022/05/17 01:22:02;;;;;;;31.80;28.70;;;;;;;;;;4964771;28;20846;-84
2022/05/17 01:24:30;;;;;;;32.17;28.97;;;;;;;;;;5014199;28;20449;-85
2022/05/17 01:27:00;;;;;;;30.60;27.63;;;;;;;;;;5014794;28;20462;-85
2022/05/17 01:29:28;;;;;;;32.13;28.73;;;;;;;;;;5014585;28;20498;-85
2022/05/17 01:31:55;;;;;;;31.03;28.03;;;;;;;;;;5014545;28;20451;-85
2022/05/17 01:34:22;;;;;;;33.10;29.73;;;;;;;;;;4996626;28;20511;-84
2022/05/17 01:36:50;;;;;;;34.50;31.10;;;;;;;;;;5014044;28;20520;-84
2022/05/17 01:39:19;;;;;;;37.43;28.87;;;;;;;;;;5014347;28;20452;-85
2022/05/17 01:41:46;;;;;;;30.37;27.60;;;;;;;;;;5013987;28;20408;-84
2022/05/17 01:44:13;;;;;;;32.87;29.67;;;;;;;;;;5014310;28;20470;-84
2022/05/17 01:46:41;;;;;;;30.60;27.57;;;;;;;;;;5014205;28;20441;-85
2022/05/17 01:49:09;;;;;;;31.97;28.67;;;;;;;;;;5013954;28;20483;-85
2022/05/17 01:51:37;;;;;;;29.53;26.97;;;;;;;;;;5013939;28;20448;-85
2022/05/17 01:54:04;;;;;;;32.47;29.30;;;;;;;;;;4997050;28;20495;-85
2022/05/17 01:56:34;;;;;;;32.17;28.90;;;;;;;;;;5014067;28;20448;-85
2022/05/17 01:59:01;;;;;;;31.17;28.07;;;;;;;;;;5014075;28;20531;-84
2022/05/17 02:01:29;;;;;;;30.43;27.53;;;;;;;;;;5013941;28;20441;-85
2022/05/17 02:03:56;;;;;;;29.90;27.03;;;;;;;;;;5013563;28;20459;-85
2022/05/17 02:06:24;;;;;;;31.13;26.77;;;;;;;;;;5014363;28;20418;-85
2022/05/17 02:08:52;;;;;;;32.70;29.10;;;;;;;;;;5013829;28;20448;-85
2022/05/17 02:11:19;;;;;;;33.23;28.30;;;;;;;;;;5012846;28;20431;-85
2022/05/17 02:13:48;;;;;;;32.97;29.97;;;;;;;;;;5013766;28;20403;-84
2022/05/17 02:16:15;;;;;;;32.10;28.70;;;;;;;;;;5013895;28;20489;-84
2022/05/17 02:18:42;;;;;;;30.80;27.07;;;;;;;;;;5013840;28;20412;-85
2022/05/17 02:21:10;;;;;;;28.27;25.90;;;;;;;;;;5013409;28;21032;-84
2022/05/17 02:23:37;;;;;;;29.00;26.50;;;;;;;;;;5013365;28;20527;-85
2022/05/17 02:26:05;;;;;;;28.67;25.97;;;;;;;;;;5013771;28;20416;-84
2022/05/17 02:28:32;;;;;;;28.47;25.97;;;;;;;;;;5013813;28;20448;-85
2022/05/17 02:31:01;;;;;;;29.00;26.40;;;;;;;;;;5013798;28;20471;-84
2022/05/17 02:33:28;;;;;;;29.23;26.70;;;;;;;;;;5013582;28;20437;-85
2022/05/17 02:35:56;;;;;;;29.03;26.43;;;;;;;;;;5013602;28;20445;-84
2022/05/17 02:38:23;;;;;;;31.53;28.53;;;;;;;;;;5013621;28;20444;-85
2022/05/17 02:40:50;;;;;;;32.23;29.13;;;;;;;;;;5013389;28;20507;-85
2022/05/17 02:43:18;;;;;;;31.30;27.90;;;;;;;;;;5013662;28;20441;-85
2022/05/17 02:45:45;;;;;;;31.63;28.50;;;;;;;;;;5013599;28;20445;-84
2022/05/17 02:48:14;;;;;;;30.80;27.80;;;;;;;;;;5013409;28;20830;-85
2022/05/17 02:50:41;;;;;;;31.77;28.83;;;;;;;;;;5013353;28;20915;-85
2022/05/17 02:53:09;;;;;;;29.90;27.07;;;;;;;;;;5013455;28;20449;-85
2022/05/17 02:55:36;;;;;;;31.57;28.67;;;;;;;;;;5013407;28;20449;-84
2022/05/17 02:58:03;;;;;;;34.23;30.90;;;;;;;;;;5013351;28;20965;-85
2022/05/17 03:00:32;;;;;;;31.50;28.50;;;;;;;;;;4995608;28;20517;-84
2022/05/17 03:02:59;;;;;;;29.90;26.97;;;;;;;;;;5013159;28;20452;-85
2022/05/17 03:05:28;;;;;;;32.87;29.50;;;;;;;;;;5013398;28;20440;-84
2022/05/17 03:07:57;;;;;;;30.70;27.80;;;;;;;;;;5013400;28;20788;-85
2022/05/17 03:10:24;;;;;;;32.43;29.30;;;;;;;;;;5013090;28;20461;-85
2022/05/17 03:12:51;;;;;;;34.13;30.53;;;;;;;;;;5013017;28;20446;-85
2022/05/17 03:15:21;;;;;;;30.83;27.90;;;;;;;;;;5013216;28;20825;-85
2022/05/17 03:17:48;;;;;;;30.90;28.00;;;;;;;;;;5013132;28;20524;-85
2022/05/17 03:20:16;;;;;;;31.30;28.10;;;;;;;;;;4995790;28;20508;-84
2022/05/17 03:22:45;;;;;;;30.77;27.87;;;;;;;;;;4998450;28;20913;-84
2022/05/17 03:25:12;;;;;;;30.70;28.00;;;;;;;;;;5016932;28;20437;-85
2022/05/17 03:27:40;;;;;;;31.27;28.17;;;;;;;;;;5016416;28;20440;-84
2022/05/17 03:30:08;;;;;;;31.60;28.10;;;;;;;;;;5016638;28;20495;-85
2022/05/17 03:32:35;;;;;;;31.60;28.43;;;;;;;;;;5016679;28;20448;-85
2022/05/17 03:35:03;;;;;;;32.07;28.83;;;;;;;;;;5016318;28;20412;-84
2022/05/17 03:37:30;;;;;;;31.40;28.10;;;;;;;;;;5016695;28;20568;-85
2022/05/17 03:39:59;;;;;;;31.07;28.03;;;;;;;;;;5016540;28;20869;-85
2022/05/17 03:42:26;;;;;;;32.07;29.07;;;;;;;;;;5016232;28;20881;-85
2022/05/17 03:44:53;;;;;;;30.87;27.80;;;;;;;;;;5016491;28;20444;-85
2022/05/17 03:47:21;;;;;;;33.80;29.83;;;;;;;;;;5016360;28;20420;-85
2022/05/17 03:49:48;;;;;;;31.37;28.40;;;;;;;;;;5016087;28;20458;-85
2022/05/17 03:52:15;;;;;;;31.80;28.20;;;;;;;;;;4998701;28;20497;-85
2022/05/17 03:54:43;;;;;;;69.37;29.80;;;;;;;;;;5016374;28;20416;-86
2022/05/17 03:57:11;;;;;;;32.07;28.93;;;;;;;;;;5016175;28;20547;-85
2022/05/17 03:59:39;;;;;;;29.63;26.93;;;;;;;;;;5015800;28;20495;-83
2022/05/17 04:02:06;;;;;;;32.57;28.20;;;;;;;;;;5016104;28;20431;-85
2022/05/17 04:04:34;;;;;;;31.97;27.60;;;;;;;;;;5015886;28;20420;-85
2022/05/17 04:07:01;;;;;;;29.90;27.30;;;;;;;;;;5016289;28;20408;-85
2022/05/17 04:09:28;;;;;;;37.80;26.70;;;;;;;;;;5015863;28;20420;-85
2022/05/17 04:11:56;;;;;;;30.27;27.50;;;;;;;;;;5016065;28;20829;-85
2022/05/17 04:14:25;;;;;;;31.03;27.90;;;;;;;;;;5015830;28;20916;-84
2022/05/17 04:16:52;;;;;;;32.23;29.00;;;;;;;;;;5015853;28;20433;-85
2022/05/17 04:19:20;;;;;;;36.33;26.93;;;;;;;;;;5015929;28;20420;-83
2022/05/17 04:21:48;;;;;;;30.90;27.67;;;;;;;;;;5015648;28;20504;-85
2022/05/17 04:24:15;;;;;;;31.90;25.87;;;;;;;;;;5015844;28;20507;-85
2022/05/17 04:26:43;;;;;;;29.20;26.20;;;;;;;;;;5015610;28;20939;-85
2022/05/17 04:29:10;;;;;;;30.03;26.87;;;;;;;;;;4998484;28;20408;-85
2022/05/17 04:31:39;;;;;;;30.03;26.87;;;;;;;;;;5015566;28;20805;-85
2022/05/17 04:34:07;;;;;;;29.30;26.63;;;;;;;;;;5014612;28;20408;-85
2022/05/17 04:36:34;;;;;;;30.37;27.53;;;;;;;;;;5015254;28;20476;-84
2022/05/17 04:39:01;;;;;;;33.60;30.30;;;;;;;;;;5015572;28;21442;-85
2022/05/17 04:41:29;;;;;;;31.33;28.50;;;;;;;;;;5015198;28;20496;-85
2022/05/17 04:43:56;;;;;;;31.83;28.43;;;;;;;;;;5015423;28;20411;-84
2022/05/17 04:46:24;;;;;;;33.87;30.37;;;;;;;;;;5015278;28;20455;-85
2022/05/17 04:48:53;;;;;;;32.33;29.20;;;;;;;;;;5014752;28;20968;-85
2022/05/17 04:51:20;;;;;;;32.57;29.37;;;;;;;;;;5015289;28;20533;-85
2022/05/17 04:53:47;;;;;;;30.87;27.43;;;;;;;;;;5015468;28;20410;-84
2022/05/17 04:56:15;;;;;;;32.47;29.37;;;;;;;;;;5015239;28;20805;-85
2022/05/17 04:58:43;;;;;;;33.47;30.00;;;;;;;;;;5015114;28;20458;-84
2022/05/17 05:01:10;;;;;;;32.53;29.47;;;;;;;;;;5014912;28;20456;-85
2022/05/17 05:03:37;;;;;;;33.77;30.27;;;;;;;;;;5016588;28;20457;-85
2022/05/17 05:06:06;;;;;;;32.40;29.40;;;;;;;;;;5016712;28;20767;-85
2022/05/17 05:08:33;;;;;;;32.50;28.90;;;;;;;;;;5016506;28;20466;-85
2022/05/17 05:11:01;;;;;;;34.37;31.17;;;;;;;;;;5014784;28;20438;-83
2022/05/17 05:13:28;;;;;;;31.57;28.87;;;;;;;;;;5015540;28;20420;-85
2022/05/17 05:15:55;;;;;;;30.97;28.27;;;;;;;;;;5015500;28;20449;-85
2022/05/17 05:18:23;;;;;;;31.80;28.90;;;;;;;;;;5014966;28;20783;-85
2022/05/17 05:20:51;;;;;;;33.27;30.03;;;;;;;;;;5014316;28;20969;-85
2022/05/17 05:23:20;;;;;;;34.50;30.90;;;;;;;;;;5014697;28;20424;-85
2022/05/17 05:25:47;;;;;;;31.60;28.33;;;;;;;;;;5014691;28;20424;-85
2022/05/17 05:28:15;;;;;;;35.53;32.10;;;;;;;;;;5018497;28;20446;-85
2022/05/17 05:30:43;;;;;;;32.63;29.67;;;;;;;;;;5017298;28;20460;-85
2022/05/17 05:33:13;;;;;;;34.10;30.63;;;;;;;;;;5017099;28;20447;-83
2022/05/17 05:35:40;;;;;;;33.10;29.80;;;;;;;;;;5016809;28;20542;-86
2022/05/17 05:38:09;;;;;;;34.10;30.67;;;;;;;;;;5018282;28;20432;-85
2022/05/17 05:40:44;;;;;;;33.47;30.40;;;;;;;;;;5022849;28;20455;-85
2022/05/17 05:43:11;;;;;;;33.83;30.40;;;;;;;;;;5018497;28;20457;-86
2022/05/17 05:45:39;;;;;;;32.10;28.80;;;;;;;;;;5018977;28;20826;-87
2022/05/17 05:48:08;;;;;;;32.20;29.03;;;;;;;;;;5023945;28;20457;-86
2022/05/17 05:50:36;;;;;;;34.77;31.20;;;;;;;;;;5019949;28;20431;-87
2022/05/17 05:53:05;;;;;;;32.03;28.93;;;;;;;;;;5017934;28;20910;-87
2022/05/17 05:55:34;;;;;;;32.73;29.33;;;;;;;;;;5019611;28;20468;-84
2022/05/17 05:58:10;;;;;;;31.70;28.53;;;;;;;;;;5016139;28;20416;-88
2022/05/17 06:00:41;;;;;;;33.83;30.50;;;;;;;;;;5020464;28;20455;-86
2022/05/17 06:03:10;;;;;;;33.40;30.27;;;;;;;;;;5023584;28;20820;-87
2022/05/17 06:05:38;;;;;;;34.23;30.93;;;;;;;;;;5001794;28;20440;-88
2022/05/17 06:08:05;;;;;;;33.50;30.50;;;;;;;;;;5017316;28;20898;-87
2022/05/17 06:10:33;;;;;;;34.10;30.73;;;;;;;;;;5019505;28;20445;-87
2022/05/17 06:13:01;;;;;;;35.27;31.93;;;;;;;;;;5014539;28;20452;-86
2022/05/17 06:15:29;;;;;;;32.47;29.43;;;;;;;;;;5016207;28;20416;-87
2022/05/17 06:18:02;;;;;;;35.20;32.00;;;;;;;;;;5018379;28;20447;-88
2022/05/17 06:20:29;;;;;;;32.53;29.30;;;;;;;;;;5020831;28;20495;-87
2022/05/17 06:22:57;;;;;;;35.57;31.97;;;;;;;;;;4997714;28;20412;-86
2022/05/17 06:25:24;;;;;;;35.20;31.73;;;;;;;;;;5014929;28;20430;-86
2022/05/17 06:27:56;;;;;;;35.60;31.80;;;;;;;;;;5000838;28;20453;-88
2022/05/17 06:30:23;;;;;;;36.47;33.13;;;;;;;;;;5017308;28;20453;-86
2022/05/17 06:32:52;;;;;;;37.00;33.30;;;;;;;;;;5016360;28;20854;-87
2022/05/17 06:35:20;;;;;;;33.27;30.30;;;;;;;;;;5017698;28;20771;-86
2022/05/17 06:37:47;;;;;;;33.37;30.23;;;;;;;;;;5017461;28;20897;-86
2022/05/17 06:40:15;;;;;;;31.70;28.70;;;;;;;;;;5017242;28;20457;-86
2022/05/17 06:42:42;;;;;;;32.47;29.40;;;;;;;;;;4997917;28;20449;-86
2022/05/17 06:45:11;;;;;;;33.77;30.77;;;;;;;;;;5014735;28;20445;-85
2022/05/17 06:47:42;;;;;;;32.90;29.80;;;;;;;;;;5015000;28;20445;-85
2022/05/17 06:50:13;;;;;;;30.93;28.13;;;;;;;;;;5014482;28;20491;-86
2022/05/17 06:52:41;;;;;;;29.60;26.50;;;;;;;;;;5014979;28;20432;-87
2022/05/17 06:55:09;;;;;;;29.00;26.40;;;;;;;;;;5002734;28;20481;-84
2022/05/17 06:57:37;;;;;;;30.17;27.30;;;;;;;;;;5017986;28;20441;-87
2022/05/17 07:00:06;;;;;;;30.00;27.40;;;;;;;;;;5021444;28;20511;-87
2022/05/17 07:02:33;;;;;;;30.90;28.20;;;;;;;;;;5018771;28;20576;-86
2022/05/17 07:05:02;;;;;;;33.03;29.60;;;;;;;;;;5018755;28;20449;-83
2022/05/17 07:07:31;;;;;;;32.13;29.10;;;;;;;;;;5018567;28;20449;-86
2022/05/17 07:15:29;;;;;;;31.00;28.30;;;;;;;;;;5017655;28;20441;-87
2022/05/17 07:17:56;;;;;;;30.87;28.13;;;;;;;;;;5017875;28;20441;-87
2022/05/17 07:20:23;;;;;;;28.40;25.90;;;;;;;;;;5017202;28;20484;-86
2022/05/17 07:22:52;;;;;;;32.43;29.53;;;;;;;;;;5016635;28;20529;-85
2022/05/17 07:25:20;;;;;;;34.20;31.00;;;;;;;;;;5024910;28;20440;-84
2022/05/17 07:27:47;;;;;;;29.37;26.90;;;;;;;;;;5037475;28;20501;-85
2022/05/17 07:30:15;;;;;;;31.87;28.97;;;;;;;;;;5036719;28;20447;-86
2022/05/17 07:32:42;;;;;;;29.13;26.70;;;;;;;;;;5036227;28;20414;-86
2022/05/17 07:35:10;;;;;;;28.80;26.40;;;;;;;;;;5019361;28;20431;-86
2022/05/17 07:37:37;;;;;;;31.60;28.77;;;;;;;;;;5036780;28;20415;-86
2022/05/17 07:40:07;;;;;;;30.67;27.97;;;;;;;;;;5036761;28;20411;-86
2022/05/17 07:42:35;;;;;;;25.80;23.67;;;;;;;;;;5036637;28;20951;-85
2022/05/17 07:45:02;;;;;;;28.50;26.17;;;;;;;;;;5036532;28;20410;-85
2022/05/17 07:47:30;;;;;;;28.33;26.00;;;;;;;;;;5036118;28;20418;-86
2022/05/17 07:49:57;;;;;;;26.73;24.47;;;;;;;;;;5036333;28;20470;-87
2022/05/17 07:52:25;;;;;;;25.67;23.73;;;;;;;;;;5036187;28;20422;-86
2022/05/17 07:54:52;;;;;;;26.10;23.90;;;;;;;;;;5036212;28;20430;-86
2022/05/17 07:57:23;;;;;;;25.97;23.80;;;;;;;;;;5037113;28;20419;-86
2022/05/17 07:59:51;;;;;;;26.07;23.90;;;;;;;;;;5037962;28;20766;-86
2022/05/17 08:02:18;;;;;;;25.77;23.67;;;;;;;;;;5038532;28;20887;-86
2022/05/17 08:04:46;;;;;;;26.13;23.70;;;;;;;;;;5037989;28;20638;-86
2022/05/17 08:07:13;;;;;;;26.70;24.50;;;;;;;;;;5037527;28;20411;-87
2022/05/17 08:09:46;;;;;;;26.13;24.13;;;;;;;;;;5038263;28;20930;-86
2022/05/17 08:12:14;;;;;;;27.33;25.13;;;;;;;;;;5038539;28;20471;-87
2022/05/17 08:14:44;;;;;;;27.30;25.00;;;;;;;;;;5038731;28;20426;-87
2022/05/17 08:17:12;;;;;;;26.50;24.50;;;;;;;;;;5038203;28;20433;-85
2022/05/17 08:19:40;;;;;;;25.83;23.77;;;;;;;;;;5038955;28;20419;-86
2022/05/17 08:22:08;;;;;;;25.57;23.27;;;;;;;;;;5038060;28;20889;-87
2022/05/17 08:27:37;;;;;;;26.40;24.27;;;;;;;;;;5038374;28;20425;-86
2022/05/17 08:30:08;;;;;;;26.83;24.73;;;;;;;;;;5038890;28;20544;-86
2022/05/17 08:35:22;;;;;;;22.13;20.20;;;;;;;;;;5037654;28;20428;-86
2022/05/17 08:37:49;;;;;;;21.17;19.93;;;;;;;;;;5037763;28;20434;-86
2022/05/17 08:40:20;;;;;;;20.73;19.43;;;;;;;;;;5036674;28;20487;-86
2022/05/17 08:42:52;;;;;;;19.53;18.43;;;;;;;;;;5037111;28;20538;-87
2022/05/17 08:45:22;;;;;;;17.80;16.70;;;;;;;;;;5035956;28;20438;-86
2022/05/17 08:47:52;;;;;;;18.33;17.00;;;;;;;;;;5035726;28;20425;-87
2022/05/17 08:50:21;;;;;;;19.07;17.93;;;;;;;;;;5035742;28;20411;-86
2022/05/17 08:52:48;;;;;;;19.50;17.90;;;;;;;;;;5035249;28;20502;-87
2022/05/17 08:55:18;;;;;;;19.23;18.07;;;;;;;;;;5035432;28;20428;-87
2022/05/17 08:57:49;;;;;;;18.57;17.37;;;;;;;;;;5035321;28;20502;-87
2022/05/17 09:00:19;;;;;;;19.60;18.43;;;;;;;;;;5035263;28;20488;-86
2022/05/17 09:02:50;;;;;;;22.23;20.60;;;;;;;;;;5035212;28;20722;-87
2022/05/17 09:05:24;;;;;;;20.37;19.13;;;;;;;;;;5035252;28;20428;-86
2022/05/17 09:07:55;;;;;;;18.83;17.70;;;;;;;;;;5035141;28;20425;-86
2022/05/17 09:10:27;;;;;;;18.20;17.20;;;;;;;;;;5035376;28;20422;-86
2022/05/17 09:12:56;;;;;;;19.03;17.87;;;;;;;;;;5035854;28;20905;-87
2022/05/17 09:15:24;;;;;;;18.67;17.47;;;;;;;;;;5036861;28;20407;-89
2022/05/17 09:17:53;;;;;;;20.20;18.80;;;;;;;;;;5037501;28;20436;-88
2022/05/17 09:20:23;;;;;;;20.43;18.77;;;;;;;;;;5037117;28;20516;-88
2022/05/17 09:22:51;;;;;;;19.63;18.53;;;;;;;;;;5036746;28;20496;-88
2022/05/17 09:25:22;;;;;;;19.97;18.57;;;;;;;;;;5038445;28;20482;-87
2022/05/17 09:27:50;;;;;;;20.13;19.03;;;;;;;;;;5041050;28;20444;-89
2022/05/17 09:30:29;;;;;;;20.90;19.80;;;;;;;;;;5037205;28;20438;-88
2022/05/17 09:33:04;;;;;;;21.43;19.93;;;;;;;;;;5037725;28;20451;-88
2022/05/17 09:35:32;;;;;;;22.07;20.77;;;;;;;;;;5036578;28;20427;-88
2022/05/17 09:38:01;;;;;;;22.30;20.87;;;;;;;;;;5037745;28;20462;-88
2022/05/17 09:40:29;;;;;;;24.60;22.57;;;;;;;;;;5036591;28;20415;-88
2022/05/17 09:43:02;;;;;;;23.87;22.30;;;;;;;;;;5036651;28;20450;-88
2022/05/17 09:45:38;;;;;;;23.93;22.63;;;;;;;;;;5037092;28;20498;-88
2022/05/17 09:48:09;;;;;;;21.93;20.83;;;;;;;;;;5019315;28;20479;-89
2022/05/17 09:53:39;;;;;;;25.97;24.57;;;;;;;;;;5035461;28;20890;-91
2022/05/17 09:56:07;;;;;;;26.03;24.53;;;;;;;;;;5034761;28;20457;-86
2022/05/17 09:58:36;;;;;;;25.50;23.80;;;;;;;;;;5035319;28;20439;-84
2022/05/17 10:01:09;;;;;;;27.30;25.90;;;;;;;;;;5036636;28;20464;-84
2022/05/17 10:03:40;;;;;;;26.20;24.90;;;;;;;;;;5021752;28;20889;-92
2022/05/17 10:06:09;;;;;;;25.70;24.40;;;;;;;;;;5037956;28;20403;-83
2022/05/17 10:08:39;;;;;;;29.60;27.90;;;;;;;;;;5046046;28;20456;-83
2022/05/17 10:11:24;;;;;;;31.10;28.77;;;;;;;;;;5046216;28;20427;-84
2022/05/17 10:14:07;;;;;;;28.03;26.10;;;;;;;;;;5038298;28;20479;-92
2022/05/17 10:16:41;;;;;;;31.60;29.83;;;;;;;;;;5035261;28;20489;-92
2022/05/17 10:19:15;;;;;;;30.43;28.70;;;;;;;;;;5037187;28;20431;-92
2022/05/17 10:21:46;;;;;;;30.53;29.03;;;;;;;;;;5036604;28;21020;-92
2022/05/17 10:24:18;;;;;;;29.10;27.60;;;;;;;;;;5036491;28;20437;-85
2022/05/17 10:26:48;;;;;;;28.17;26.57;;;;;;;;;;5034829;28;20414;-92
2022/05/17 10:29:21;;;;;;;26.40;24.90;;;;;;;;;;5038373;28;20795;-91
2022/05/17 10:31:52;;;;;;;25.20;23.80;;;;;;;;;;5036562;28;20435;-87
2022/05/17 10:34:27;;;;;;;25.10;23.70;;;;;;;;;;5038841;28;20452;-92
2022/05/17 10:36:58;;;;;;;24.80;23.37;;;;;;;;;;5037103;28;20497;-92
2022/05/17 10:39:28;;;;;;;23.57;21.97;;;;;;;;;;5036418;28;20453;-92
2022/05/17 10:41:56;;;;;;;24.17;22.87;;;;;;;;;;5037369;28;20480;-90
2022/05/17 10:44:24;;;;;;;23.53;22.10;;;;;;;;;;5017993;28;20838;-91
2022/05/17 10:46:55;;;;;;;24.40;22.77;;;;;;;;;;5036051;28;20924;-90
2022/05/17 10:49:28;;;;;;;22.70;21.30;;;;;;;;;;5036292;28;20479;-90
2022/05/17 10:52:05;;;;;;;24.30;22.57;;;;;;;;;;5037473;28;20421;-91
2022/05/17 10:54:41;;;;;;;24.07;22.73;;;;;;;;;;5036271;28;20426;-89
2022/05/17 10:57:16;;;;;;;25.80;24.10;;;;;;;;;;5035154;28;20513;-90
2022/05/17 10:59:46;;;;;;;24.70;23.10;;;;;;;;;;5016760;28;20418;-91
2022/05/17 11:02:21;;;;;;;24.53;22.73;;;;;;;;;;5033751;28;20476;-92
2022/05/17 11:05:02;;;;;;;23.43;22.03;;;;;;;;;;5016606;28;20509;-91
2022/05/17 11:07:44;;;;;;;23.67;22.27;;;;;;;;;;5033806;28;21118;-89
2022/05/17 11:10:16;;;;;;;25.53;23.60;;;;;;;;;;5031103;28;20455;-91
2022/05/17 11:12:49;;;;;;;24.03;22.27;;;;;;;;;;5033995;28;20872;-91
2022/05/17 11:15:17;;;;;;;24.03;22.40;;;;;;;;;;5033726;28;20448;-91
2022/05/17 11:17:50;;;;;;;24.30;22.70;;;;;;;;;;5034796;28;20754;-92
2022/05/17 11:20:22;;;;;;;24.93;23.33;;;;;;;;;;5035035;28;20667;-91
2022/05/17 11:22:53;;;;;;;25.07;23.17;;;;;;;;;;5016594;28;20463;-91
2022/05/17 11:25:44;;;;;;;24.80;23.10;;;;;;;;;;5033675;28;20444;-90
2022/05/17 11:28:26;;;;;;;24.40;22.80;;;;;;;;;;5033935;28;20446;-91
2022/05/17 11:30:58;;;;;;;24.53;22.83;;;;;;;;;;5033518;28;20893;-92
2022/05/17 11:33:42;;;;;;;25.80;24.23;;;;;;;;;;5033339;28;20426;-92
2022/05/17 11:36:12;;;;;;;24.83;23.30;;;;;;;;;;5033753;28;20793;-91
2022/05/17 11:38:45;;;;;;;26.43;24.83;;;;;;;;;;5033897;28;20486;-91
2022/05/17 11:41:16;;;;;;;26.03;24.30;;;;;;;;;;5034517;28;20419;-93
2022/05/17 11:43:48;;;;;;;26.40;24.60;;;;;;;;;;5037739;28;20541;-92
2022/05/17 11:46:35;;;;;;;26.07;24.27;;;;;;;;;;5037637;28;20415;-92
2022/05/17 11:49:03;;;;;;;26.07;24.17;;;;;;;;;;5037117;28;20492;-91
2022/05/17 11:51:33;;;;;;;26.40;24.70;;;;;;;;;;5036972;28;20418;-92
2022/05/17 11:54:01;;;;;;;27.37;25.37;;;;;;;;;;5037303;28;20519;-92
2022/05/17 11:56:35;;;;;;;26.60;25.00;;;;;;;;;;5036890;28;20457;-92
2022/05/17 11:59:31;;;;;;;27.37;25.57;;;;;;;;;;5037012;28;20431;-92
2022/05/17 12:02:05;;;;;;;25.77;23.60;;;;;;;;;;5037502;28;20441;-92
2022/05/17 12:04:43;;;;;;;23.87;22.27;;;;;;;;;;5036818;28;20802;-91
2022/05/17 12:07:26;;;;;;;22.30;21.00;;;;;;;;;;5037464;28;20527;-92
2022/05/17 12:09:55;;;;;;;22.73;21.43;;;;;;;;;;5038307;28;20439;-93
2022/05/17 12:12:43;;;;;;;23.97;22.53;;;;;;;;;;5037355;28;20837;-91
2022/05/17 12:15:20;;;;;;;23.60;22.30;;;;;;;;;;5038152;28;20470;-87
2022/05/17 12:17:56;;;;;;;23.60;22.30;;;;;;;;;;5037580;28;20794;-96
2022/05/17 12:20:27;;;;;;;24.30;23.00;;;;;;;;;;5037335;28;20943;-94
2022/05/17 12:22:59;;;;;;;23.70;22.07;;;;;;;;;;5037701;28;20458;-95
2022/05/17 12:25:31;;;;;;;23.83;22.33;;;;;;;;;;5037296;28;20908;-95
2022/05/17 12:27:59;;;;;;;23.10;21.80;;;;;;;;;;5037686;28;21018;-95
2022/05/17 12:33:13;;;;;;;23.60;22.23;;;;;;;;;;5037099;28;20462;-95
2022/05/17 12:35:41;;;;;;;24.03;22.40;;;;;;;;;;5018408;28;20828;-96
2022/05/17 12:43:37;;;;;;;24.20;22.70;;;;;;;;;;5036379;28;20452;-96
2022/05/17 12:46:13;;;;;;;24.40;23.03;;;;;;;;;;5018261;28;20452;-95
2022/05/17 12:48:42;;;;;;;23.83;22.53;;;;;;;;;;5036253;28;20476;-88
2022/05/17 12:51:10;;;;;;;23.60;22.40;;;;;;;;;;5036420;28;20429;-93
2022/05/17 12:53:41;;;;;;;24.47;22.77;;;;;;;;;;5035737;28;20770;-92
2022/05/17 12:56:09;;;;;;;24.10;22.70;;;;;;;;;;5035170;28;20441;-93
2022/05/17 12:58:38;;;;;;;23.03;21.73;;;;;;;;;;5035486;28;20439;-92
2022/05/17 13:01:08;;;;;;;23.77;22.23;;;;;;;;;;5035653;28;20439;-92
2022/05/17 13:03:35;;;;;;;23.77;22.50;;;;;;;;;;5035333;28;20459;-92
2022/05/17 13:06:04;;;;;;;24.20;22.60;;;;;;;;;;5035749;28;20456;-93
2022/05/17 13:08:35;;;;;;;23.40;22.10;;;;;;;;;;5035239;28;20437;-92
2022/05/17 13:11:07;;;;;;;22.90;21.60;;;;;;;;;;5035377;28;20432;-92
2022/05/17 13:13:35;;;;;;;23.70;22.40;;;;;;;;;;5035728;28;20438;-93
2022/05/17 13:16:05;;;;;;;23.20;21.80;;;;;;;;;;5035224;28;20432;-93
2022/05/17 13:18:39;;;;;;;22.23;21.03;;;;;;;;;;5035026;28;20399;-92
2022/05/17 13:21:07;;;;;;;24.27;22.97;;;;;;;;;;5034987;28;20477;-93
2022/05/17 13:23:34;;;;;;;24.70;23.23;;;;;;;;;;5034965;28;21043;-86
2022/05/17 13:26:03;;;;;;;23.87;22.57;;;;;;;;;;5034883;28;20419;-87
2022/05/17 13:28:34;;;;;;;23.60;22.30;;;;;;;;;;5017141;28;20511;-92
2022/05/17 13:31:14;;;;;;;23.50;22.17;;;;;;;;;;5017537;28;20431;-93
2022/05/17 13:33:42;;;;;;;24.20;22.63;;;;;;;;;;5034938;28;20445;-92
2022/05/17 13:36:11;;;;;;;23.50;22.00;;;;;;;;;;5035216;28;20489;-92
2022/05/17 13:38:38;;;;;;;22.90;21.70;;;;;;;;;;5034761;28;20433;-93
2022/05/17 13:41:17;;;;;;;22.60;21.40;;;;;;;;;;5034689;28;20415;-93
2022/05/17 13:44:02;;;;;;;23.20;21.67;;;;;;;;;;5034520;28;20469;-93
2022/05/17 13:46:36;;;;;;;22.80;21.40;;;;;;;;;;5035217;28;20443;-90
2022/05/17 13:49:06;;;;;;;22.57;21.37;;;;;;;;;;5034428;28;20468;-90
2022/05/17 13:51:37;;;;;;;22.23;21.03;;;;;;;;;;5034759;28;20438;-90
2022/05/17 13:54:06;;;;;;;23.40;22.10;;;;;;;;;;5034592;28;20487;-90
2022/05/17 13:56:36;;;;;;;23.07;21.80;;;;;;;;;;5034404;28;20442;-90
2022/05/17 13:59:05;;;;;;;22.60;21.40;;;;;;;;;;5034426;28;20415;-90
2022/05/17 14:01:35;;;;;;;21.90;20.60;;;;;;;;;;5034266;28;20485;-90
2022/05/17 14:04:08;;;;;;;21.90;20.63;;;;;;;;;;5016763;28;20490;-91
2022/05/17 14:06:46;;;;;;;22.30;20.90;;;;;;;;;;5033526;28;20445;-90
2022/05/17 14:12:08;;;;;;;21.97;20.77;;;;;;;;;;5034391;28;20443;-88
2022/05/17 14:14:36;;;;;;;21.93;20.63;;;;;;;;;;5016326;28;20820;-86
2022/05/17 14:17:09;;;;;;;22.00;20.80;;;;;;;;;;5033973;28;20414;-84
2022/05/17 14:19:36;;;;;;;22.37;21.07;;;;;;;;;;5032904;28;20473;-84
2022/05/17 14:22:07;;;;;;;22.30;21.10;;;;;;;;;;5033569;28;20549;-87
2022/05/17 14:24:34;;;;;;;22.07;20.77;;;;;;;;;;5033482;28;20466;-87
2022/05/17 14:27:02;;;;;;;20.77;19.60;;;;;;;;;;5033770;28;20444;-86
2022/05/17 14:29:33;;;;;;;21.17;19.97;;;;;;;;;;5033676;28;20419;-87
2022/05/17 14:32:01;;;;;;;21.40;20.20;;;;;;;;;;5033776;28;20468;-86
2022/05/17 14:34:30;;;;;;;22.17;20.77;;;;;;;;;;5033746;28;20761;-86
2022/05/17 14:36:58;;;;;;;22.27;21.07;;;;;;;;;;5033515;28;20531;-86
2022/05/17 14:39:26;;;;;;;23.90;22.53;;;;;;;;;;5016321;28;20513;-87
2022/05/17 14:41:54;;;;;;;22.60;21.40;;;;;;;;;;5033367;28;20440;-85
2022/05/17 14:44:23;;;;;;;22.00;20.80;;;;;;;;;;5033462;28;20459;-86
2022/05/17 14:46:50;;;;;;;22.80;21.20;;;;;;;;;;5033680;28;20469;-86
2022/05/17 14:49:19;;;;;;;22.70;21.37;;;;;;;;;;5033430;28;20470;-85
2022/05/17 14:51:48;;;;;;;23.33;21.97;;;;;;;;;;5033525;28;20899;-85
2022/05/17 14:54:15;;;;;;;22.77;21.37;;;;;;;;;;5033435;28;20415;-86
2022/05/17 14:56:43;;;;;;;23.53;21.83;;;;;;;;;;5033367;28;20827;-86
2022/05/17 14:59:11;;;;;;;23.03;21.73;;;;;;;;;;5032970;28;20421;-85
2022/05/17 15:01:42;;;;;;;23.17;21.83;;;;;;;;;;5033336;28;20411;-85